createdAt,value
2023-05-04T00:02:05.313Z,19.98
2023-05-04T00:04:31.946Z,20.20
2023-05-04T00:06:58.566Z,20.01
2023-05-04T00:09:25.936Z,19.58
2023-05-04T00:11:52.652Z,19.61
2023-05-04T00:14:19.214Z,19.97
2023-05-04T00:16:45.889Z,19.92
2023-05-04T00:19:12.522Z,19.85
2023-05-04T00:21:39.102Z,20.04
2023-05-04T00:24:05.809Z,19.58
2023-05-04T00:26:32.496Z,19.43
2023-05-04T00:28:59.064Z,19.76
2023-05-04T00:31:25.771Z,19.66
2023-05-04T00:33:52.617Z,19.62
2023-05-04T00:36:19.218Z,19.63
2023-05-04T00:38:51.262Z,19.58
2023-05-04T00:41:19.557Z,19.45
2023-05-04T00:43:54.515Z,19.23
2023-05-04T00:46:21.297Z,19.15
2023-05-04T00:48:49.782Z,19.33
2023-05-04T00:51:19.182Z,19.19
2023-05-04T00:56:12.676Z,19.05
2023-05-04T00:58:39.820Z,18.98
2023-05-04T01:01:06.427Z,18.68
2023-05-04T01:03:33.617Z,18.92
2023-05-04T01:06:26.460Z,18.73
2023-05-04T01:09:06.622Z,18.79
2023-05-04T01:12:21.909Z,18.51
2023-05-04T01:14:49.886Z,18.74
2023-05-04T01:17:16.496Z,18.85
2023-05-04T01:19:43.061Z,18.78
2023-05-04T01:22:09.630Z,18.69
2023-05-04T01:24:36.532Z,18.84
2023-05-04T01:27:08.565Z,18.80
2023-05-04T01:30:01.793Z,18.65
2023-05-04T01:32:31.217Z,18.64
2023-05-04T01:34:59.069Z,18.69
2023-05-04T01:37:26.206Z,18.70
2023-05-04T01:39:52.720Z,18.74
2023-05-04T01:42:19.308Z,18.75
2023-05-04T01:44:45.896Z,18.66
2023-05-04T01:47:12.419Z,18.70
2023-05-04T01:49:38.927Z,18.64
2023-05-04T01:52:05.476Z,18.55
2023-05-04T01:54:31.999Z,18.56
2023-05-04T01:56:58.620Z,18.61
2023-05-04T01:59:25.305Z,18.60
2023-05-04T02:01:52.024Z,18.64
2023-05-04T02:04:18.642Z,18.52
2023-05-04T02:06:45.292Z,18.51
2023-05-04T02:09:11.984Z,18.40
2023-05-04T02:11:38.705Z,18.46
2023-05-04T02:14:05.379Z,18.29
2023-05-04T02:16:32.193Z,18.22
2023-05-04T02:18:58.793Z,18.16
2023-05-04T02:21:25.533Z,18.18
2023-05-04T02:23:52.205Z,18.13
2023-05-04T02:26:18.779Z,18.09
2023-05-04T02:28:45.424Z,18.10
2023-05-04T02:31:12.060Z,18.14
2023-05-04T02:33:38.611Z,18.11
2023-05-04T02:36:05.542Z,18.24
2023-05-04T02:38:32.071Z,18.37
2023-05-04T02:40:58.669Z,18.41
2023-05-04T02:43:25.255Z,18.42
2023-05-04T02:45:52.790Z,18.36
2023-05-04T02:48:20.128Z,18.34
2023-05-04T02:50:46.714Z,18.14
2023-05-04T02:53:13.266Z,18.37
2023-05-04T02:55:39.895Z,18.37
2023-05-04T02:58:07.100Z,18.32
2023-05-04T03:00:33.744Z,18.40
2023-05-04T03:03:00.348Z,18.44
2023-05-04T03:05:27.014Z,18.49
2023-05-04T03:07:53.525Z,18.58
2023-05-04T03:10:20.173Z,18.72
2023-05-04T03:12:46.792Z,18.62
2023-05-04T03:15:13.454Z,18.32
2023-05-04T03:17:40.255Z,18.10
2023-05-04T03:20:07.938Z,17.94
2023-05-04T03:22:34.737Z,18.02
2023-05-04T03:25:01.517Z,18.02
2023-05-04T03:27:29.338Z,18.05
2023-05-04T03:29:56.695Z,18.16
2023-05-04T03:32:24.722Z,18.09
2023-05-04T03:34:51.312Z,18.20
2023-05-04T03:37:18.883Z,18.06
2023-05-04T03:39:45.556Z,18.02
2023-05-04T03:42:12.160Z,18.01
2023-05-04T03:44:38.674Z,17.94
2023-05-04T03:47:05.278Z,17.97
2023-05-04T03:49:32.440Z,18.05
2023-05-04T03:51:58.913Z,17.95
2023-05-04T03:54:26.270Z,17.97
2023-05-04T03:56:54.214Z,18.07
2023-05-04T03:59:20.911Z,18.01
2023-05-04T04:01:47.465Z,18.05
2023-05-04T04:04:14.149Z,18.13
2023-05-04T04:06:43.221Z,18.04
2023-05-04T04:09:10.320Z,18.05
2023-05-04T04:11:37.014Z,17.97
2023-05-04T04:14:03.588Z,17.69
2023-05-04T04:16:30.702Z,17.32
2023-05-04T04:18:58.026Z,17.41
2023-05-04T04:21:24.866Z,17.30
2023-05-04T04:23:51.410Z,17.38
2023-05-04T04:26:17.934Z,17.44
2023-05-04T04:28:50.226Z,17.29
2023-05-04T04:31:20.403Z,17.30
2023-05-04T04:33:47.373Z,17.65
2023-05-04T04:36:16.657Z,17.74
2023-05-04T04:38:43.350Z,17.79
2023-05-04T04:41:10.556Z,17.86
2023-05-04T04:43:37.171Z,17.73
2023-05-04T04:46:06.966Z,17.71
2023-05-04T04:48:33.704Z,17.52
2023-05-04T04:51:00.331Z,17.59
2023-05-04T04:53:27.130Z,17.69
2023-05-04T04:55:54.649Z,17.90
2023-05-04T04:58:21.917Z,17.87
2023-05-04T05:00:48.841Z,17.61
2023-05-04T05:03:15.961Z,17.46
2023-05-04T05:05:42.792Z,17.55
2023-05-04T05:08:09.420Z,17.88
2023-05-04T05:10:35.985Z,18.14
2023-05-04T05:13:02.614Z,18.23
2023-05-04T05:15:29.243Z,18.31
2023-05-04T05:17:56.522Z,18.07
2023-05-04T05:20:23.507Z,18.15
2023-05-04T05:22:51.514Z,18.39
2023-05-04T05:25:18.886Z,18.58
2023-05-04T05:27:45.809Z,18.51
2023-05-04T05:30:12.539Z,18.25
2023-05-04T05:32:39.108Z,18.35
2023-05-04T05:35:06.241Z,18.62
2023-05-04T05:37:32.804Z,18.77
2023-05-04T05:39:59.458Z,18.96
2023-05-04T05:42:26.021Z,19.10
2023-05-04T05:44:52.503Z,19.23
2023-05-04T05:47:19.314Z,19.38
2023-05-04T05:49:46.455Z,19.53
2023-05-04T05:52:13.294Z,19.53
2023-05-04T05:54:39.826Z,19.32
2023-05-04T05:57:06.445Z,19.15
2023-05-04T05:59:32.996Z,19.19
2023-05-04T06:02:00.109Z,19.13
2023-05-04T06:04:26.687Z,19.21
2023-05-04T06:06:53.316Z,19.33
2023-05-04T06:09:20.974Z,19.09
2023-05-04T06:11:47.645Z,18.96
2023-05-04T06:14:14.156Z,19.41
2023-05-04T06:16:41.292Z,19.53
2023-05-04T06:19:08.067Z,19.36
2023-05-04T06:21:34.860Z,19.58
2023-05-04T06:24:01.516Z,19.52
2023-05-04T06:26:28.297Z,19.63
2023-05-04T06:28:54.929Z,19.65
2023-05-04T06:31:21.710Z,19.47
2023-05-04T06:33:48.429Z,19.82
2023-05-04T06:36:14.969Z,19.78
2023-05-04T06:38:41.495Z,19.84
2023-05-04T06:41:08.162Z,19.98
2023-05-04T06:43:34.887Z,19.90
2023-05-04T06:46:04.868Z,19.86
2023-05-04T06:48:31.762Z,19.94
2023-05-04T06:51:00.068Z,20.01
2023-05-04T06:53:29.096Z,20.02
2023-05-04T06:55:55.678Z,20.52
2023-05-04T06:58:22.461Z,20.84
2023-05-04T07:00:49.371Z,20.74
2023-05-04T07:03:16.228Z,21.01
2023-05-04T07:05:44.749Z,21.17
2023-05-04T07:08:12.335Z,21.33
2023-05-04T07:10:38.885Z,21.45
2023-05-04T07:13:06.230Z,21.84
2023-05-04T07:15:33.861Z,21.98
2023-05-04T07:18:01.176Z,22.11
2023-05-04T07:20:28.175Z,22.81
2023-05-04T07:22:58.237Z,23.32
2023-05-04T07:25:25.602Z,23.70
2023-05-04T07:27:52.812Z,25.08
2023-05-04T07:30:20.239Z,25.32
2023-05-04T07:32:46.813Z,24.40
2023-05-04T07:35:13.532Z,25.57
2023-05-04T07:37:40.214Z,27.33
2023-05-04T07:40:07.611Z,27.57
2023-05-04T07:42:34.544Z,28.05
2023-05-04T07:45:01.238Z,26.74
2023-05-04T07:47:27.906Z,25.98
2023-05-04T07:49:54.674Z,25.98
2023-05-04T07:52:21.332Z,24.70
2023-05-04T07:54:51.372Z,24.60
2023-05-04T07:57:17.908Z,25.83
2023-05-04T07:59:44.445Z,26.46
2023-05-04T08:02:11.540Z,26.30
2023-05-04T08:04:38.217Z,25.79
2023-05-04T08:07:04.777Z,26.18
2023-05-04T08:09:31.368Z,25.95
2023-05-04T08:11:58.239Z,25.86
2023-05-04T08:14:24.911Z,25.98
2023-05-04T08:16:51.498Z,26.10
2023-05-04T08:19:19.089Z,25.75
2023-05-04T08:21:45.645Z,25.35
2023-05-04T08:24:12.558Z,25.60
2023-05-04T08:26:39.506Z,25.65
2023-05-04T08:29:07.882Z,25.62
2023-05-04T08:31:34.507Z,25.53
2023-05-04T08:34:01.503Z,25.60
2023-05-04T08:36:28.181Z,25.52
2023-05-04T08:38:54.753Z,25.05
2023-05-04T08:41:23.258Z,25.28
2023-05-04T08:43:50.406Z,25.07
2023-05-04T08:46:17.552Z,25.20
2023-05-04T08:48:44.883Z,25.29
2023-05-04T08:51:11.903Z,25.24
2023-05-04T08:53:42.955Z,25.39
2023-05-04T08:56:12.574Z,25.28
2023-05-04T08:58:52.609Z,25.55
2023-05-04T09:01:21.874Z,25.83
2023-05-04T09:03:49.153Z,25.86
2023-05-04T09:06:16.170Z,25.69
2023-05-04T09:08:42.987Z,25.73
2023-05-04T09:11:09.621Z,25.82
2023-05-04T09:13:36.978Z,25.93
2023-05-04T09:16:04.022Z,25.80
2023-05-04T09:18:41.207Z,25.89
2023-05-04T09:21:08.167Z,25.68
2023-05-04T09:23:46.152Z,25.84
2023-05-04T09:26:12.842Z,25.76
2023-05-04T09:28:39.548Z,25.79
2023-05-04T09:31:07.420Z,25.79
2023-05-04T09:33:34.791Z,25.83
2023-05-04T09:36:14.377Z,25.68
2023-05-04T09:38:41.274Z,25.56
2023-05-04T09:41:07.916Z,25.88
2023-05-04T09:43:38.776Z,26.04
2023-05-04T09:46:06.091Z,26.34
2023-05-04T09:48:32.678Z,26.44
2023-05-04T09:51:00.978Z,26.54
2023-05-04T09:53:29.065Z,26.50
2023-05-04T09:56:19.815Z,26.81
2023-05-04T09:58:47.481Z,26.98
2023-05-04T10:01:14.117Z,27.08
2023-05-04T10:03:41.177Z,26.79
2023-05-04T10:06:08.941Z,26.80
2023-05-04T10:08:35.958Z,27.27
2023-05-04T10:11:02.524Z,27.44
2023-05-04T10:13:29.149Z,27.49
2023-05-04T10:16:24.465Z,27.74
2023-05-04T10:19:19.139Z,27.53
2023-05-04T10:21:54.566Z,27.35
2023-05-04T10:24:48.456Z,27.37
2023-05-04T10:27:18.793Z,27.57
2023-05-04T10:29:50.613Z,27.54
2023-05-04T10:32:22.067Z,27.55
2023-05-04T10:34:49.442Z,27.72
2023-05-04T10:37:18.464Z,27.70
2023-05-04T10:39:53.458Z,27.53
2023-05-04T10:42:20.474Z,27.65
2023-05-04T10:44:55.397Z,27.76
2023-05-04T10:47:36.813Z,27.86
2023-05-04T10:50:07.279Z,28.02
2023-05-04T10:52:55.221Z,27.90
2023-05-04T10:55:22.407Z,27.97
2023-05-04T10:57:55.911Z,28.25
2023-05-04T11:00:24.339Z,28.33
2023-05-04T11:02:50.981Z,28.36
2023-05-04T11:05:19.889Z,28.55
2023-05-04T11:07:50.568Z,28.40
2023-05-04T11:10:27.037Z,28.44
2023-05-04T11:12:55.665Z,28.45
2023-05-04T11:15:22.429Z,28.46
2023-05-04T11:17:51.500Z,28.26
2023-05-04T11:20:26.275Z,28.42
2023-05-04T11:22:54.178Z,28.48
2023-05-04T11:25:28.380Z,28.59
2023-05-04T11:27:55.025Z,28.46
2023-05-04T11:30:22.072Z,28.53
2023-05-04T11:32:53.964Z,28.44
2023-05-04T11:35:22.796Z,28.56
2023-05-04T11:37:50.528Z,28.69
2023-05-04T11:40:19.771Z,28.84
2023-05-04T11:42:47.096Z,29.12
2023-05-04T11:45:17.788Z,29.27
2023-05-04T11:47:45.491Z,29.35
2023-05-04T11:50:14.324Z,29.22
2023-05-04T11:52:41.672Z,29.37
2023-05-04T11:55:10.075Z,29.49
2023-05-04T11:57:37.629Z,29.83
2023-05-04T12:00:05.200Z,29.76
2023-05-04T12:02:32.462Z,29.84
2023-05-04T12:04:59.279Z,29.89
2023-05-04T12:07:26.175Z,30.10
2023-05-04T12:09:52.647Z,29.81
2023-05-04T12:12:21.134Z,29.93
2023-05-04T12:14:50.615Z,30.17
2023-05-04T12:17:20.330Z,30.23
2023-05-04T12:19:57.238Z,29.94
2023-05-04T12:22:28.720Z,29.64
2023-05-04T12:24:59.677Z,29.75
2023-05-04T12:27:27.275Z,29.95
2023-05-04T12:29:53.929Z,30.02
2023-05-04T12:32:21.332Z,30.16
2023-05-04T12:34:47.867Z,30.08
2023-05-04T12:37:14.413Z,30.09
2023-05-04T12:39:41.029Z,30.27
2023-05-04T12:42:07.583Z,30.28
2023-05-04T12:44:34.488Z,30.03
2023-05-04T12:47:01.383Z,30.12
2023-05-04T12:49:27.968Z,30.12
2023-05-04T12:51:54.513Z,30.32
2023-05-04T12:54:21.101Z,30.10
2023-05-04T12:56:47.675Z,30.22
2023-05-04T12:59:14.174Z,30.36
2023-05-04T13:01:41.473Z,30.48
2023-05-04T13:04:08.132Z,30.56
2023-05-04T13:06:34.872Z,30.93
2023-05-04T13:09:05.739Z,30.70
2023-05-04T13:11:32.586Z,30.83
2023-05-04T13:13:59.145Z,30.74
2023-05-04T13:16:27.867Z,30.73
2023-05-04T13:18:55.418Z,30.85
2023-05-04T13:21:22.059Z,30.86
2023-05-04T13:23:48.613Z,30.92
2023-05-04T13:26:15.233Z,31.02
2023-05-04T13:28:41.842Z,31.13
2023-05-04T13:31:09.660Z,31.23
2023-05-04T13:33:39.093Z,30.92
2023-05-04T13:36:06.878Z,30.81
2023-05-04T13:38:33.586Z,30.64
2023-05-04T13:41:00.194Z,30.41
2023-05-04T13:43:28.528Z,30.70
2023-05-04T13:45:57.141Z,30.79
2023-05-04T13:48:25.559Z,30.56
2023-05-04T13:50:52.513Z,30.62
2023-05-04T13:53:19.008Z,30.62
2023-05-04T13:55:45.557Z,30.63
2023-05-04T13:58:12.046Z,30.83
2023-05-04T14:00:38.627Z,30.91
2023-05-04T14:03:05.309Z,31.05
2023-05-04T14:05:32.017Z,31.03
2023-05-04T14:07:58.499Z,31.04
2023-05-04T14:10:25.066Z,30.97
2023-05-04T14:12:51.696Z,31.02
2023-05-04T14:15:22.256Z,30.97
2023-05-04T14:17:49.741Z,31.01
2023-05-04T14:20:16.292Z,31.10
2023-05-04T14:22:43.225Z,30.99
2023-05-04T14:25:09.991Z,31.10
2023-05-04T14:27:36.561Z,31.18
2023-05-04T14:30:04.090Z,31.26
2023-05-04T14:32:30.710Z,31.23
2023-05-04T14:35:10.986Z,31.22
2023-05-04T14:37:39.173Z,31.24
2023-05-04T14:40:12.234Z,30.67
2023-05-04T14:42:39.097Z,30.36
2023-05-04T14:45:07.315Z,30.18
2023-05-04T14:47:34.554Z,29.93
2023-05-04T14:50:04.229Z,30.06
2023-05-04T14:52:31.075Z,30.19
2023-05-04T14:54:57.598Z,30.48
2023-05-04T14:57:24.147Z,30.49
2023-05-04T14:59:51.078Z,30.58
2023-05-04T15:02:18.592Z,30.38
2023-05-04T15:04:46.718Z,30.48
2023-05-04T15:07:15.795Z,30.43
2023-05-04T15:09:42.308Z,30.45
2023-05-04T15:12:09.510Z,30.50
2023-05-04T15:14:36.395Z,30.68
2023-05-04T15:17:04.209Z,30.76
2023-05-04T15:19:30.897Z,30.93
2023-05-04T15:21:57.404Z,30.98
2023-05-04T15:24:23.928Z,30.85
2023-05-04T15:26:50.466Z,30.96
2023-05-04T15:29:16.944Z,30.84
2023-05-04T15:31:43.914Z,30.76
2023-05-04T15:34:10.673Z,30.95
2023-05-04T15:36:37.264Z,30.92
2023-05-04T15:39:05.423Z,30.78
2023-05-04T15:41:32.017Z,30.70
2023-05-04T15:43:58.764Z,30.82
2023-05-04T15:46:25.778Z,30.90
2023-05-04T15:48:52.319Z,30.86
2023-05-04T15:51:18.893Z,30.84
2023-05-04T15:53:45.467Z,30.91
2023-05-04T15:56:13.224Z,30.75
2023-05-04T15:58:39.702Z,30.72
2023-05-04T16:01:09.193Z,30.65
2023-05-04T16:03:37.273Z,30.82
2023-05-04T16:06:05.466Z,30.64
2023-05-04T16:08:32.135Z,30.98
2023-05-04T16:10:58.612Z,30.89
2023-05-04T16:13:25.265Z,30.59
2023-05-04T16:15:52.852Z,30.60
2023-05-04T16:18:19.752Z,30.61
2023-05-04T16:20:47.375Z,30.70
2023-05-04T16:23:15.679Z,30.76
2023-05-04T16:25:43.213Z,30.74
2023-05-04T16:28:10.210Z,30.86
2023-05-04T16:30:37.387Z,31.04
2023-05-04T16:33:04.510Z,31.12
2023-05-04T16:35:31.762Z,31.03
2023-05-04T16:37:59.155Z,30.88
2023-05-04T16:40:26.410Z,31.03
2023-05-04T16:42:52.961Z,31.18
2023-05-04T16:45:19.637Z,31.20
2023-05-04T16:47:46.409Z,30.69
2023-05-04T16:50:14.330Z,30.57
2023-05-04T16:52:41.248Z,30.67
2023-05-04T16:55:11.584Z,30.85
2023-05-04T16:57:39.329Z,31.05
2023-05-04T17:00:07.267Z,31.19
2023-05-04T17:02:34.881Z,31.25
2023-05-04T17:05:01.903Z,30.97
2023-05-04T17:07:28.725Z,30.82
2023-05-04T17:09:55.356Z,30.97
2023-05-04T17:12:23.160Z,30.95
2023-05-04T17:14:49.773Z,30.80
2023-05-04T17:17:16.491Z,30.74
2023-05-04T17:19:43.059Z,30.95
2023-05-04T17:22:11.014Z,31.23
2023-05-04T17:24:37.584Z,30.87
2023-05-04T17:27:04.504Z,30.54
2023-05-04T17:29:31.237Z,30.45
2023-05-04T17:31:57.864Z,30.38
2023-05-04T17:34:24.449Z,30.41
2023-05-04T17:36:51.050Z,30.30
2023-05-04T17:39:18.657Z,30.38
2023-05-04T17:41:48.721Z,30.32
2023-05-04T17:44:16.274Z,30.51
2023-05-04T17:46:43.449Z,30.43
2023-05-04T17:49:10.191Z,30.39
2023-05-04T17:51:36.746Z,30.29
2023-05-04T17:54:03.400Z,30.35
2023-05-04T17:56:29.889Z,30.39
2023-05-04T17:58:56.597Z,30.09
2023-05-04T18:01:23.139Z,29.95
2023-05-04T18:03:50.001Z,29.89
2023-05-04T18:06:16.701Z,29.95
2023-05-04T18:08:43.330Z,29.94
2023-05-04T18:11:09.899Z,29.92
2023-05-04T18:13:36.461Z,29.91
2023-05-04T18:16:03.185Z,29.81
2023-05-04T18:18:29.798Z,29.82
2023-05-04T18:21:00.597Z,29.62
2023-05-04T18:23:27.200Z,29.59
2023-05-04T18:25:53.708Z,29.52
2023-05-04T18:28:20.409Z,29.61
2023-05-04T18:30:46.903Z,29.73
2023-05-04T18:33:13.502Z,29.56
2023-05-04T18:35:40.042Z,29.31
2023-05-04T18:38:07.181Z,29.14
2023-05-04T18:40:33.838Z,29.15
2023-05-04T18:43:00.413Z,29.27
2023-05-04T18:45:27.731Z,29.28
2023-05-04T18:47:54.312Z,29.33
2023-05-04T18:50:20.872Z,29.33
2023-05-04T18:52:47.414Z,29.34
2023-05-04T18:55:13.906Z,29.30
2023-05-04T18:57:40.465Z,29.26
2023-05-04T19:00:08.946Z,29.35
2023-05-04T19:02:36.614Z,29.42
2023-05-04T19:05:03.177Z,29.17
2023-05-04T19:07:29.694Z,28.84
2023-05-04T19:09:56.268Z,28.59
2023-05-04T19:12:22.876Z,28.63
2023-05-04T19:14:50.397Z,28.45
2023-05-04T19:17:18.180Z,28.56
2023-05-04T19:19:44.809Z,28.72
2023-05-04T19:22:13.102Z,28.66
2023-05-04T19:24:39.876Z,28.34
2023-05-04T19:27:07.896Z,28.58
2023-05-04T19:29:34.437Z,28.50
2023-05-04T19:32:05.691Z,28.22
2023-05-04T19:34:42.730Z,28.20
2023-05-04T19:37:09.391Z,28.09
2023-05-04T19:39:36.510Z,28.23
2023-05-04T19:42:03.239Z,28.49
2023-05-04T19:44:29.735Z,28.44
2023-05-04T19:46:56.348Z,28.03
2023-05-04T19:49:24.789Z,28.36
2023-05-04T19:51:51.338Z,28.30
2023-05-04T19:54:17.932Z,28.15
2023-05-04T19:56:44.472Z,27.93
2023-05-04T19:59:11.188Z,27.94
2023-05-04T20:01:37.756Z,27.88
2023-05-04T20:04:05.837Z,27.90
2023-05-04T20:06:32.510Z,27.83
2023-05-04T20:08:59.115Z,27.58
2023-05-04T20:11:25.770Z,27.63
2023-05-04T20:13:54.104Z,27.69
2023-05-04T20:16:22.088Z,27.56
2023-05-04T20:18:49.021Z,27.57
2023-05-04T20:21:15.621Z,27.47
2023-05-04T20:23:42.190Z,27.28
2023-05-04T20:26:08.776Z,27.15
2023-05-04T20:28:35.314Z,27.29
2023-05-04T20:31:01.856Z,27.30
2023-05-04T20:33:28.413Z,27.25
2023-05-04T20:35:54.970Z,27.13
2023-05-04T20:38:21.489Z,27.20
2023-05-04T20:40:48.131Z,27.35
2023-05-04T20:43:15.211Z,27.37
2023-05-04T20:45:41.894Z,27.52
2023-05-04T20:48:08.376Z,27.65
2023-05-04T20:50:35.145Z,27.81
2023-05-04T20:53:02.037Z,27.86
2023-05-04T20:55:28.711Z,28.05
2023-05-04T20:57:55.257Z,28.26
2023-05-04T21:00:21.844Z,28.27
2023-05-04T21:02:48.656Z,28.21
2023-05-04T21:05:15.453Z,28.03
2023-05-04T21:07:41.948Z,27.65
2023-05-04T21:10:09.272Z,27.92
2023-05-04T21:12:36.295Z,27.92
2023-05-04T21:15:02.936Z,27.96
2023-05-04T21:17:29.459Z,27.99
2023-05-04T21:19:56.465Z,27.89
2023-05-04T21:22:23.031Z,27.93
2023-05-04T21:24:49.627Z,27.91
2023-05-04T21:27:16.111Z,28.08
2023-05-04T21:29:42.617Z,28.02
2023-05-04T21:32:09.232Z,28.01
2023-05-04T21:34:35.817Z,28.00
2023-05-04T21:37:03.614Z,28.20
2023-05-04T21:39:30.267Z,28.20
2023-05-04T21:41:56.942Z,27.92
2023-05-04T21:44:23.586Z,27.81
2023-05-04T21:46:50.343Z,27.81
2023-05-04T21:49:16.998Z,27.94
2023-05-04T21:51:43.563Z,27.64
2023-05-04T21:54:10.235Z,27.62
2023-05-04T21:56:37.057Z,27.50
2023-05-04T21:59:03.631Z,27.32
2023-05-04T22:01:30.344Z,27.37
2023-05-04T22:03:57.056Z,27.29
2023-05-04T22:06:24.391Z,27.53
2023-05-04T22:08:51.121Z,27.55
2023-05-04T22:11:17.640Z,27.86
2023-05-04T22:13:44.190Z,27.69
2023-05-04T22:16:10.929Z,27.69
2023-05-04T22:18:37.848Z,27.79
2023-05-04T22:21:04.371Z,27.89
2023-05-04T22:23:30.945Z,27.86
2023-05-04T22:25:57.497Z,27.96
2023-05-04T22:28:24.077Z,28.01
2023-05-04T22:30:50.631Z,27.65
2023-05-04T22:33:17.351Z,27.51
2023-05-04T22:35:43.821Z,27.49
2023-05-04T22:38:11.812Z,27.45
2023-05-04T22:40:40.426Z,27.71
2023-05-04T22:43:07.490Z,27.52
2023-05-04T22:45:38.265Z,27.46
2023-05-04T22:48:05.076Z,27.34
2023-05-04T22:50:31.653Z,27.37
2023-05-04T22:52:58.306Z,27.28
2023-05-04T22:55:25.049Z,27.21
2023-05-04T22:57:51.695Z,27.24
2023-05-04T23:00:18.555Z,27.31
2023-05-04T23:02:45.169Z,27.33
2023-05-04T23:05:11.752Z,27.30
2023-05-04T23:07:38.624Z,27.53
2023-05-04T23:10:05.895Z,27.52
2023-05-04T23:12:32.646Z,27.59
2023-05-04T23:14:59.256Z,27.77
2023-05-04T23:17:25.849Z,27.52
2023-05-04T23:19:52.388Z,27.38
2023-05-04T23:22:18.950Z,27.47
2023-05-04T23:24:45.428Z,27.53
2023-05-04T23:27:12.281Z,27.41
2023-05-04T23:29:38.978Z,27.54
2023-05-04T23:32:06.205Z,27.53
2023-05-04T23:34:32.776Z,27.45
2023-05-04T23:36:59.371Z,27.37
2023-05-04T23:39:26.057Z,27.50
2023-05-04T23:41:53.588Z,27.76
2023-05-04T23:44:21.124Z,27.83
2023-05-04T23:46:47.777Z,27.63
2023-05-04T23:49:14.272Z,27.54
2023-05-04T23:51:40.888Z,27.51
2023-05-04T23:54:07.359Z,27.65
2023-05-04T23:56:33.900Z,27.78
2023-05-04T23:59:00.461Z,27.81
